Time;durP1;ratioP1;P1;durP2;ratioP2;P2;SDS_P1;SDS_P2;PMS_P1;PMS_P2;Temp;Humidity;BMP_temperature;BMP_pressure;BME280_temperature;BME280_humidity;BME280_pressure;Samples;Min_cycle;Max_cycle;Signal;HPM_P1;HPM_P2
2021/01/18 00:01:39;;;;;;;117.03;37.07;;;-14.80;99.90;;;;;;4350549;33;20171;-74
2021/01/18 00:04:06;;;;;;;140.53;36.97;;;-14.70;99.90;;;;;;4349877;33;20239;-74
2021/01/18 00:06:34;;;;;;;130.40;37.30;;;-14.80;99.90;;;;;;4349791;33;20157;-74
2021/01/18 00:09:02;;;;;;;122.10;38.37;;;-14.80;99.90;;;;;;4349510;33;20161;-74
2021/01/18 00:11:28;;;;;;;138.70;38.40;;;-14.90;99.90;;;;;;4350263;33;20149;-74
2021/01/18 00:13:55;;;;;;;114.47;37.47;;;-14.80;99.90;;;;;;4350332;33;20149;-74
2021/01/18 00:16:23;;;;;;;128.90;38.90;;;-14.90;99.90;;;;;;4349737;33;20164;-74
2021/01/18 00:18:50;;;;;;;132.83;37.43;;;-14.90;99.90;;;;;;4349645;32;20214;-73
2021/01/18 00:21:17;;;;;;;134.23;38.30;;;-14.90;99.90;;;;;;4349698;33;20199;-73
2021/01/18 00:23:44;;;;;;;124.33;38.70;;;-14.90;99.90;;;;;;4349714;33;20194;-73
2021/01/18 00:26:11;;;;;;;141.23;39.20;;;-14.80;99.90;;;;;;4348956;33;20406;-73
2021/01/18 00:28:41;;;;;;;142.97;41.80;;;-14.90;99.90;;;;;;4350698;33;20175;-73
2021/01/18 00:31:08;;;;;;;144.17;43.00;;;-14.90;99.90;;;;;;4349272;33;20164;-73
2021/01/18 00:33:36;;;;;;;153.20;41.57;;;-14.90;99.90;;;;;;4349440;33;20144;-73
2021/01/18 00:36:06;;;;;;;137.50;40.53;;;-15.00;99.90;;;;;;4349382;33;20161;-73
2021/01/18 00:38:34;;;;;;;133.23;39.73;;;-15.00;99.90;;;;;;4349772;33;20145;-73
2021/01/18 00:41:01;;;;;;;137.03;41.53;;;-15.00;99.90;;;;;;4348843;33;20537;-73
2021/01/18 00:43:31;;;;;;;146.87;42.00;;;-15.00;99.90;;;;;;4348801;33;20200;-73
2021/01/18 00:45:58;;;;;;;153.80;43.63;;;-15.00;99.90;;;;;;4349365;33;20164;-73
2021/01/18 00:48:24;;;;;;;151.80;44.30;;;-15.00;99.90;;;;;;4348735;33;20219;-73
2021/01/18 00:50:52;;;;;;;147.40;46.50;;;-15.10;99.90;;;;;;4350262;33;20451;-73
2021/01/18 00:53:19;;;;;;;165.80;43.67;;;-15.10;99.90;;;;;;4349313;33;20207;-73
2021/01/18 00:55:46;;;;;;;158.20;46.73;;;-15.20;99.90;;;;;;4349616;33;20176;-73
2021/01/18 00:58:13;;;;;;;157.57;47.13;;;-15.20;99.90;;;;;;4349527;33;20156;-73
2021/01/18 01:00:40;;;;;;;156.47;46.73;;;-15.30;99.90;;;;;;4349521;33;20160;-73
2021/01/18 01:03:07;;;;;;;153.30;44.87;;;-15.30;99.90;;;;;;4349335;33;20163;-72
2021/01/18 01:05:34;;;;;;;175.93;46.40;;;-15.30;99.90;;;;;;4348694;33;20206;-73
2021/01/18 01:08:01;;;;;;;138.60;42.50;;;-15.30;99.90;;;;;;4349105;33;20148;-73
2021/01/18 01:10:33;;;;;;;170.00;47.53;;;-15.40;99.90;;;;;;4349254;33;20141;-72
2021/01/18 01:13:02;;;;;;;165.27;47.03;;;-15.50;99.90;;;;;;4350408;33;20171;-72
2021/01/18 01:15:29;;;;;;;151.10;44.50;;;-15.60;99.90;;;;;;4348695;33;20144;-72
2021/01/18 01:17:56;;;;;;;133.80;41.13;;;-15.50;99.90;;;;;;4348992;33;20270;-73
2021/01/18 01:20:25;;;;;;;148.47;42.27;;;-15.60;99.90;;;;;;4348639;33;20196;-72
2021/01/18 01:22:52;;;;;;;139.67;45.40;;;-15.60;99.90;;;;;;4349149;33;20144;-72
2021/01/18 01:25:22;;;;;;;141.20;42.13;;;-15.60;99.90;;;;;;4349167;33;20152;-73
2021/01/18 01:27:49;;;;;;;161.13;45.47;;;-15.70;99.90;;;;;;4348587;33;20148;-73
2021/01/18 01:30:21;;;;;;;163.90;45.33;;;-15.70;99.90;;;;;;4348501;33;20160;-73
2021/01/18 01:32:50;;;;;;;156.63;45.03;;;-15.70;99.90;;;;;;4349135;33;20170;-73
2021/01/18 01:35:20;;;;;;;137.53;43.37;;;-15.70;99.90;;;;;;4348606;33;20153;-73
2021/01/18 01:37:47;;;;;;;149.83;45.13;;;-15.70;99.90;;;;;;4349493;33;20164;-72
2021/01/18 01:40:16;;;;;;;155.20;43.97;;;-15.70;99.90;;;;;;4348933;33;20160;-73
2021/01/18 01:42:44;;;;;;;166.47;48.37;;;-15.60;99.90;;;;;;4348455;33;20163;-73
2021/01/18 01:45:13;;;;;;;161.10;45.53;;;-15.70;99.90;;;;;;4348748;33;20273;-73
2021/01/18 01:47:49;;;;;;;158.93;46.57;;;-15.70;99.90;;;;;;4347767;33;20157;-73
2021/01/18 01:50:44;;;;;;;148.37;44.83;;;-15.60;99.90;;;;;;4349009;33;20222;-73
2021/01/18 01:53:28;;;;;;;140.87;41.93;;;-15.60;99.90;;;;;;4346084;33;20192;-73
2021/01/18 01:55:57;;;;;;;153.50;44.57;;;-15.70;99.90;;;;;;4351120;33;20207;-73
2021/01/18 01:58:25;;;;;;;150.53;43.87;;;-15.80;99.90;;;;;;4351622;33;20172;-74
2021/01/18 02:00:56;;;;;;;145.20;43.90;;;-15.70;99.90;;;;;;4351563;33;20168;-73
2021/01/18 02:03:32;;;;;;;154.90;46.20;;;-15.80;99.90;;;;;;4351164;33;20567;-74
2021/01/18 02:05:59;;;;;;;150.87;43.33;;;-15.70;99.90;;;;;;4351057;33;20183;-74
2021/01/18 02:08:26;;;;;;;144.10;46.40;;;-15.80;99.90;;;;;;4351645;33;20545;-74
2021/01/18 02:10:52;;;;;;;149.57;44.87;;;-15.80;99.90;;;;;;4351472;33;20179;-74
2021/01/18 02:13:42;;;;;;;160.23;47.90;;;-15.70;99.90;;;;;;4351758;33;20174;-73
2021/01/18 02:16:47;;;;;;;151.10;44.80;;;-15.80;99.90;;;;;;4351216;33;20164;-73
2021/01/18 02:19:37;;;;;;;149.33;43.33;;;-15.80;99.90;;;;;;4351138;33;20223;-73
2021/01/18 02:22:36;;;;;;;140.50;44.90;;;-15.80;99.90;;;;;;4351660;33;20220;-73
2021/01/18 02:25:11;;;;;;;173.50;44.87;;;-15.80;99.90;;;;;;4351320;33;20148;-73
2021/01/18 02:27:47;;;;;;;140.97;41.23;;;-15.80;99.90;;;;;;4351329;33;20152;-73
2021/01/18 02:30:48;;;;;;;156.20;46.57;;;-15.90;99.90;;;;;;4351211;33;20206;-73
2021/01/18 02:33:27;;;;;;;146.63;43.03;;;-16.00;99.90;;;;;;4350921;33;20149;-73
2021/01/18 02:36:11;;;;;;;139.53;44.03;;;-15.90;99.90;;;;;;4350992;33;20186;-73
2021/01/18 02:38:59;;;;;;;138.00;44.23;;;-16.00;99.90;;;;;;4351442;33;20402;-73
2021/01/18 02:42:09;;;;;;;168.20;44.60;;;-15.90;99.90;;;;;;4351589;33;20231;-74
2021/01/18 02:44:39;;;;;;;140.20;41.93;;;-16.00;99.90;;;;;;4343298;33;20542;-73
2021/01/18 02:47:07;;;;;;;152.70;44.17;;;-15.90;99.90;;;;;;4351025;33;20202;-73
2021/01/18 02:49:34;;;;;;;157.67;45.73;;;-15.90;99.90;;;;;;4350936;33;20201;-73
2021/01/18 02:52:09;;;;;;;140.87;43.90;;;-16.00;99.90;;;;;;4350905;33;20167;-73
2021/01/18 02:54:36;;;;;;;168.50;47.90;;;-16.00;99.90;;;;;;4351003;33;20183;-73
2021/01/18 02:57:12;;;;;;;147.60;44.57;;;-16.10;99.90;;;;;;4350774;33;20156;-73
2021/01/18 02:59:39;;;;;;;154.37;44.33;;;-16.10;99.90;;;;;;4350666;33;20159;-74
2021/01/18 03:02:15;;;;;;;154.33;43.20;;;-16.10;99.90;;;;;;4350752;33;20525;-73
2021/01/18 03:04:45;;;;;;;149.60;44.60;;;-16.10;99.90;;;;;;4350978;33;20148;-73
2021/01/18 03:07:18;;;;;;;153.80;43.47;;;-16.10;99.90;;;;;;4350864;33;20144;-73
2021/01/18 03:10:04;;;;;;;150.77;44.63;;;-16.20;99.90;;;;;;4337312;33;20172;-73
2021/01/18 03:12:42;;;;;;;153.37;45.17;;;-16.20;99.90;;;;;;4350697;33;20152;-73
2021/01/18 03:15:13;;;;;;;141.60;42.33;;;-16.30;99.90;;;;;;4350401;33;20196;-73
2021/01/18 03:17:43;;;;;;;130.23;43.40;;;-16.30;99.90;;;;;;4350670;33;20164;-73
2021/01/18 03:20:10;;;;;;;150.20;41.93;;;-16.30;99.90;;;;;;4350182;33;20168;-74
2021/01/18 03:22:38;;;;;;;148.03;43.60;;;-16.20;99.90;;;;;;4350598;33;20222;-73
2021/01/18 03:25:07;;;;;;;137.67;37.70;;;-16.50;99.90;;;;;;4350394;33;20491;-74
2021/01/18 03:28:03;;;;;;;149.67;41.00;;;-16.50;99.90;;;;;;4351620;33;20164;-73
2021/01/18 03:30:30;;;;;;;134.90;39.40;;;-16.40;99.90;;;;;;4319415;33;20233;-74
2021/01/18 03:32:56;;;;;;;137.10;36.83;;;-16.40;99.90;;;;;;4318223;33;20261;-74
2021/01/18 03:35:23;;;;;;;146.80;40.40;;;-16.40;99.90;;;;;;4319054;33;20157;-73
2021/01/18 03:37:54;;;;;;;126.60;40.23;;;-16.40;99.90;;;;;;4318597;33;20450;-73
2021/01/18 03:40:22;;;;;;;154.33;41.87;;;-16.30;99.90;;;;;;4318804;33;20165;-73
2021/01/18 03:42:53;;;;;;;147.07;41.40;;;-16.30;99.90;;;;;;4319363;33;20431;-74
2021/01/18 03:45:20;;;;;;;150.80;40.63;;;-16.40;99.90;;;;;;4318614;33;20410;-73
2021/01/18 03:47:47;;;;;;;161.70;43.23;;;-16.50;99.90;;;;;;4318797;33;20165;-73
2021/01/18 03:50:14;;;;;;;144.40;41.47;;;-16.60;99.90;;;;;;4319346;33;20154;-73
2021/01/18 03:52:44;;;;;;;142.77;40.43;;;-16.40;99.90;;;;;;4319457;33;20157;-73
2021/01/18 03:55:11;;;;;;;134.10;40.93;;;-16.30;99.90;;;;;;4319387;33;20510;-73
2021/01/18 03:57:38;;;;;;;154.40;43.13;;;-16.20;99.90;;;;;;4319029;33;20188;-73
2021/01/18 04:00:06;;;;;;;140.93;42.43;;;-16.20;99.90;;;;;;4317849;33;20522;-74
2021/01/18 04:02:33;;;;;;;157.37;43.83;;;-16.20;99.90;;;;;;4318305;33;20150;-74
2021/01/18 04:04:59;;;;;;;140.27;42.97;;;-16.10;99.90;;;;;;4318964;33;20165;-73
2021/01/18 04:07:26;;;;;;;138.40;43.43;;;-16.10;99.90;;;;;;4341056;33;20207;-73
2021/01/18 04:09:53;;;;;;;152.73;45.27;;;-16.10;99.90;;;;;;4336545;33;20176;-73
2021/01/18 04:12:19;;;;;;;153.83;41.80;;;-16.20;99.90;;;;;;4350063;33;20153;-73
2021/01/18 04:14:46;;;;;;;152.83;44.80;;;-16.20;99.90;;;;;;4349867;33;20180;-73
2021/01/18 04:17:13;;;;;;;149.77;43.40;;;-16.20;99.90;;;;;;4349719;33;20407;-73
2021/01/18 04:19:40;;;;;;;161.80;46.90;;;-16.30;99.90;;;;;;4349221;33;20163;-73
2021/01/18 04:22:06;;;;;;;135.90;42.67;;;-16.20;99.90;;;;;;4349315;33;20185;-73
2021/01/18 04:24:33;;;;;;;163.80;45.83;;;-16.20;99.90;;;;;;4349072;32;20169;-73
2021/01/18 04:27:00;;;;;;;153.33;44.97;;;-16.10;99.90;;;;;;4349402;33;20225;-73
2021/01/18 04:29:28;;;;;;;155.40;44.63;;;-16.20;99.90;;;;;;4349637;33;20192;-73
2021/01/18 04:31:54;;;;;;;146.67;41.93;;;-16.10;99.90;;;;;;4349535;33;20260;-73
2021/01/18 04:34:21;;;;;;;141.37;42.87;;;-16.00;99.90;;;;;;4349550;33;20187;-73
2021/01/18 04:36:48;;;;;;;147.20;43.80;;;-16.00;99.90;;;;;;4350098;33;20152;-73
2021/01/18 04:39:15;;;;;;;133.00;41.17;;;-16.10;99.90;;;;;;4350438;33;20171;-73
2021/01/18 04:41:45;;;;;;;153.07;44.07;;;-16.20;99.90;;;;;;4349432;33;20140;-73
2021/01/18 04:44:14;;;;;;;155.40;41.70;;;-16.10;99.90;;;;;;4349194;33;20153;-73
2021/01/18 04:46:46;;;;;;;129.77;39.17;;;-16.10;99.90;;;;;;4349452;33;20526;-73
2021/01/18 04:49:14;;;;;;;142.73;40.03;;;-16.20;99.90;;;;;;4350152;33;20144;-73
2021/01/18 04:51:50;;;;;;;124.70;40.63;;;-16.20;99.90;;;;;;4349419;33;20179;-73
2021/01/18 04:54:19;;;;;;;129.63;39.77;;;-16.20;99.90;;;;;;4350307;33;20215;-73
2021/01/18 04:57:09;;;;;;;124.90;35.43;;;-16.20;99.90;;;;;;4349262;33;20144;-73
2021/01/18 04:59:44;;;;;;;120.67;37.80;;;-16.40;99.90;;;;;;4348888;33;20160;-73
2021/01/18 05:02:15;;;;;;;138.43;41.17;;;-16.40;99.90;;;;;;4348788;33;20419;-73
2021/01/18 05:04:45;;;;;;;128.00;38.00;;;-16.40;99.90;;;;;;4348967;33;20175;-73
2021/01/18 05:07:35;;;;;;;117.67;38.40;;;-16.30;99.90;;;;;;4349049;33;20198;-74
2021/01/18 05:10:08;;;;;;;127.50;38.53;;;-16.40;99.90;;;;;;4344648;33;20179;-74
2021/01/18 05:12:37;;;;;;;141.77;40.17;;;-16.40;99.90;;;;;;4350045;33;20168;-73
2021/01/18 05:15:05;;;;;;;137.67;39.60;;;-16.40;99.90;;;;;;4349019;33;20145;-73
2021/01/18 05:17:45;;;;;;;153.90;41.83;;;-16.40;99.90;;;;;;4350327;33;20367;-73
2021/01/18 05:20:17;;;;;;;142.90;42.83;;;-16.40;99.90;;;;;;4348016;33;20612;-73
2021/01/18 05:22:55;;;;;;;130.53;39.00;;;-16.40;99.90;;;;;;4349353;33;20141;-73
2021/01/18 05:25:23;;;;;;;153.60;42.97;;;-16.40;99.90;;;;;;4349804;33;20425;-75
2021/01/18 05:28:09;;;;;;;138.63;39.67;;;-16.40;99.90;;;;;;4348092;33;20215;-75
2021/01/18 05:30:38;;;;;;;121.33;38.57;;;-16.40;99.90;;;;;;4345093;33;20159;-75
2021/01/18 05:33:09;;;;;;;137.93;39.13;;;-16.40;99.90;;;;;;4352968;33;20196;-74
2021/01/18 05:35:39;;;;;;;153.43;41.63;;;-16.40;99.90;;;;;;4351379;33;20172;-74
2021/01/18 05:38:12;;;;;;;129.20;38.47;;;-16.40;99.90;;;;;;4352264;33;20152;-75
2021/01/18 05:40:49;;;;;;;153.70;41.83;;;-16.30;99.90;;;;;;4351617;33;20160;-72
2021/01/18 05:43:18;;;;;;;135.23;41.23;;;-16.30;99.90;;;;;;4352278;33;20196;-73
2021/01/18 05:45:46;;;;;;;133.50;41.03;;;-16.30;99.90;;;;;;4351299;33;20388;-76
2021/01/18 05:48:25;;;;;;;136.40;43.67;;;-16.30;99.90;;;;;;4351335;33;20211;-74
2021/01/18 05:50:56;;;;;;;128.83;41.77;;;-16.20;99.90;;;;;;4352030;33;20497;-73
2021/01/18 05:53:26;;;;;;;113.50;38.90;;;-16.20;99.90;;;;;;4338425;33;20156;-73
2021/01/18 05:56:17;;;;;;;137.93;39.23;;;-16.20;99.90;;;;;;4352335;33;20188;-73
2021/01/18 05:58:46;;;;;;;134.10;39.43;;;-16.30;99.90;;;;;;4353127;33;20171;-73
2021/01/18 06:01:13;;;;;;;130.50;40.93;;;-16.30;99.90;;;;;;4351106;33;20164;-73
2021/01/18 06:03:41;;;;;;;126.93;39.40;;;-16.30;99.90;;;;;;4352564;33;20179;-73
2021/01/18 06:06:09;;;;;;;120.07;37.17;;;-16.30;99.90;;;;;;4351597;33;20148;-73
2021/01/18 06:08:35;;;;;;;142.73;40.23;;;-16.30;99.90;;;;;;4351173;33;20148;-73
2021/01/18 06:11:03;;;;;;;141.80;41.13;;;-16.30;99.90;;;;;;4351450;33;20144;-73
2021/01/18 06:13:32;;;;;;;131.97;39.07;;;-16.40;99.90;;;;;;4351866;33;20156;-73
2021/01/18 06:15:59;;;;;;;120.80;37.10;;;-16.30;99.90;;;;;;4351354;33;20175;-73
2021/01/18 06:18:31;;;;;;;135.37;40.33;;;-16.40;99.90;;;;;;4349686;33;20496;-73
2021/01/18 06:20:58;;;;;;;126.60;38.00;;;-16.30;99.90;;;;;;4350382;33;20542;-73
2021/01/18 06:23:25;;;;;;;140.17;38.23;;;-16.40;99.90;;;;;;4348451;33;20179;-73
2021/01/18 06:25:54;;;;;;;140.10;40.20;;;-16.40;99.90;;;;;;4348447;33;20160;-73
2021/01/18 06:28:34;;;;;;;124.63;37.73;;;-16.50;99.90;;;;;;4348431;33;20178;-73
2021/01/18 06:31:04;;;;;;;111.20;37.07;;;-16.60;99.90;;;;;;4348166;33;20423;-73
2021/01/18 06:33:39;;;;;;;115.20;35.17;;;-16.70;99.90;;;;;;4348963;33;20187;-73
2021/01/18 06:36:26;;;;;;;103.63;34.87;;;-16.70;99.90;;;;;;4348953;33;20202;-73
2021/01/18 06:38:59;;;;;;;116.30;34.20;;;-16.70;99.90;;;;;;4351015;33;20167;-73
2021/01/18 06:41:38;;;;;;;111.30;36.03;;;-16.70;99.90;;;;;;4349628;33;20156;-73
2021/01/18 06:44:06;;;;;;;122.87;35.37;;;-16.70;99.90;;;;;;4351187;33;20195;-73
2021/01/18 06:46:37;;;;;;;123.70;36.43;;;-16.70;99.90;;;;;;4350407;33;20421;-73
2021/01/18 06:49:05;;;;;;;141.07;38.80;;;-16.80;99.90;;;;;;4350577;33;20156;-73
2021/01/18 06:51:33;;;;;;;110.90;33.90;;;-16.70;99.90;;;;;;4350081;33;20207;-73
2021/01/18 06:54:00;;;;;;;126.87;37.23;;;-16.70;99.90;;;;;;4350301;33;20148;-73
2021/01/18 06:57:06;;;;;;;134.83;37.03;;;-16.70;99.90;;;;;;4350859;33;20537;-73
2021/01/18 06:59:44;;;;;;;109.43;35.73;;;-16.60;99.90;;;;;;4350675;33;20213;-73
2021/01/18 07:02:14;;;;;;;118.97;36.43;;;-16.60;99.90;;;;;;4350645;33;20166;-72
2021/01/18 07:04:46;;;;;;;118.33;38.40;;;-16.50;99.90;;;;;;4350149;33;20202;-73
2021/01/18 07:07:27;;;;;;;129.70;36.83;;;-16.50;99.90;;;;;;4351142;33;20178;-72
2021/01/18 07:10:00;;;;;;;129.53;37.70;;;-16.40;99.90;;;;;;4350645;33;20145;-73
2021/01/18 07:12:28;;;;;;;120.70;36.27;;;-16.50;99.90;;;;;;4350105;33;20176;-73
2021/01/18 07:15:09;;;;;;;130.20;37.67;;;-16.40;99.90;;;;;;4350309;33;20179;-72
2021/01/18 07:17:42;;;;;;;138.60;38.50;;;-16.50;99.90;;;;;;4350141;33;20206;-73
2021/01/18 07:20:23;;;;;;;135.83;36.67;;;-16.40;99.90;;;;;;4350128;33;20187;-73
2021/01/18 07:23:27;;;;;;;130.87;37.57;;;-16.30;99.90;;;;;;4350255;33;20160;-73
2021/01/18 07:26:06;;;;;;;131.93;37.30;;;-16.20;99.90;;;;;;4350344;33;20556;-74
2021/01/18 07:28:34;;;;;;;126.13;39.07;;;-16.10;99.90;;;;;;4351129;33;20182;-73
2021/01/18 07:31:01;;;;;;;129.37;37.83;;;-16.00;99.90;;;;;;4350364;33;20203;-73
2021/01/18 07:33:28;;;;;;;132.60;38.20;;;-16.00;99.90;;;;;;4350372;33;20175;-73
2021/01/18 07:35:54;;;;;;;122.10;39.87;;;-16.00;99.90;;;;;;4350233;33;20211;-73
2021/01/18 07:38:24;;;;;;;132.53;38.40;;;-15.90;99.90;;;;;;4350192;33;20517;-73
2021/01/18 07:41:06;;;;;;;121.77;37.67;;;-15.80;99.90;;;;;;4350142;33;20160;-72
2021/01/18 07:43:34;;;;;;;131.07;39.07;;;-15.80;99.90;;;;;;4349716;33;20170;-75
2021/01/18 07:46:30;;;;;;;134.90;39.30;;;-15.70;99.90;;;;;;4350125;33;20144;-73
2021/01/18 07:49:23;;;;;;;122.57;37.87;;;-15.40;99.90;;;;;;4350184;33;20207;-73
2021/01/18 07:51:50;;;;;;;133.30;40.80;;;-15.30;99.90;;;;;;4349883;33;20198;-74
2021/01/18 07:54:33;;;;;;;123.33;37.13;;;-14.90;99.90;;;;;;4349482;33;20230;-74
2021/01/18 07:57:29;;;;;;;128.20;37.87;;;-14.80;99.90;;;;;;4349625;33;20455;-74
2021/01/18 08:00:18;;;;;;;130.33;36.77;;;-14.70;99.90;;;;;;4349256;33;20164;-74
2021/01/18 08:02:55;;;;;;;136.00;38.70;;;-14.50;99.90;;;;;;4349479;33;20198;-73
2021/01/18 08:05:36;;;;;;;120.30;37.40;;;-14.50;99.90;;;;;;4349871;33;20166;-73
2021/01/18 08:08:16;;;;;;;147.13;41.23;;;-14.60;99.90;;;;;;4349828;33;20172;-73
2021/01/18 08:10:51;;;;;;;134.00;40.00;;;-14.60;99.90;;;;;;4351179;33;20144;-75
2021/01/18 08:13:35;;;;;;;139.97;40.43;;;-14.60;99.90;;;;;;4349346;33;20152;-75
2021/01/18 08:16:15;;;;;;;128.03;40.03;;;-14.60;99.90;;;;;;4349812;33;20463;-75
2021/01/18 08:18:58;;;;;;;138.43;39.97;;;-14.40;99.90;;;;;;4349447;33;20210;-76
2021/01/18 08:21:34;;;;;;;140.93;41.90;;;-14.50;99.90;;;;;;4349675;33;20210;-75
2021/01/18 08:24:26;;;;;;;130.80;40.20;;;-14.40;99.90;;;;;;4350877;33;20156;-74
2021/01/18 08:26:57;;;;;;;131.20;41.47;;;-14.00;99.90;;;;;;4348868;33;20156;-75
2021/01/18 08:29:43;;;;;;;140.50;40.80;;;-13.90;99.90;;;;;;4349567;33;20140;-74
2021/01/18 08:32:22;;;;;;;144.07;39.90;;;-13.90;99.90;;;;;;4349964;33;20173;-74
2021/01/18 08:34:54;;;;;;;121.80;38.80;;;-13.70;99.80;;;;;;4350444;33;20166;-75
2021/01/18 08:37:22;;;;;;;146.27;43.33;;;-13.60;99.60;;;;;;4348813;33;20176;-75
2021/01/18 08:39:57;;;;;;;156.70;42.13;;;-13.60;99.20;;;;;;4348828;33;20156;-76
2021/01/18 08:42:35;;;;;;;156.70;42.83;;;-13.40;98.80;;;;;;4350390;33;20175;-75
2021/01/18 08:45:25;;;;;;;141.50;41.80;;;-13.40;98.70;;;;;;4349213;33;20140;-74
2021/01/18 08:47:55;;;;;;;120.30;37.97;;;-13.20;98.60;;;;;;4349572;33;20218;-74
2021/01/18 08:50:31;;;;;;;138.20;42.43;;;-13.10;98.40;;;;;;4348504;33;20172;-75
2021/01/18 08:53:03;;;;;;;148.00;44.50;;;-13.10;97.50;;;;;;4349995;33;20465;-74
2021/01/18 08:55:40;;;;;;;138.43;41.73;;;-13.00;97.20;;;;;;4349655;33;20148;-75
2021/01/18 08:58:07;;;;;;;145.67;41.90;;;-13.00;97.40;;;;;;4349737;33;20206;-75
2021/01/18 09:00:44;;;;;;;153.30;44.67;;;-13.10;97.00;;;;;;4349617;33;20502;-75
2021/01/18 09:03:20;;;;;;;137.70;41.53;;;-13.20;97.50;;;;;;4350237;33;20210;-75
2021/01/18 09:05:57;;;;;;;147.53;41.63;;;-13.20;97.90;;;;;;4334833;33;20203;-76
2021/01/18 09:08:26;;;;;;;148.83;41.90;;;-13.20;98.10;;;;;;4349097;33;20148;-75
2021/01/18 09:10:57;;;;;;;155.53;41.77;;;-13.40;97.80;;;;;;4349052;33;20175;-75
2021/01/18 09:13:27;;;;;;;155.27;45.13;;;-13.40;98.20;;;;;;4348989;33;20149;-75
2021/01/18 09:15:56;;;;;;;139.20;42.43;;;-13.30;98.50;;;;;;4348211;33;20163;-75
2021/01/18 09:18:25;;;;;;;134.47;40.83;;;-13.50;98.50;;;;;;4346686;33;20167;-73
2021/01/18 09:20:54;;;;;;;153.50;42.70;;;-13.40;99.10;;;;;;4348471;33;20161;-73
2021/01/18 09:23:22;;;;;;;142.67;43.43;;;-13.30;99.00;;;;;;4349763;33;20152;-73
2021/01/18 09:26:05;;;;;;;155.80;45.13;;;-13.10;99.50;;;;;;4349977;33;20152;-73
2021/01/18 09:28:32;;;;;;;149.47;41.93;;;-13.20;99.10;;;;;;4346792;33;20164;-74
2021/01/18 09:31:11;;;;;;;139.97;40.93;;;-13.20;99.30;;;;;;4348925;33;20164;-75
2021/01/18 09:33:44;;;;;;;160.37;44.00;;;-13.30;99.90;;;;;;4350212;33;20163;-74
2021/01/18 09:36:16;;;;;;;137.67;42.03;;;-13.30;99.90;;;;;;4349046;33;20178;-73
2021/01/18 09:38:44;;;;;;;155.27;44.17;;;-13.20;99.90;;;;;;4349500;33;20209;-73
2021/01/18 09:41:11;;;;;;;172.80;46.93;;;-13.00;99.90;;;;;;4348832;33;20202;-73
2021/01/18 09:43:40;;;;;;;139.43;43.63;;;-13.00;99.60;;;;;;4348770;33;20218;-73
2021/01/18 09:46:06;;;;;;;145.47;44.27;;;-13.00;99.90;;;;;;4348080;33;20452;-75
2021/01/18 09:48:34;;;;;;;138.03;43.87;;;-12.90;99.80;;;;;;4349648;33;20223;-75
2021/01/18 09:51:05;;;;;;;150.73;46.63;;;-12.80;99.70;;;;;;4348363;33;20216;-76
2021/01/18 09:53:36;;;;;;;143.13;43.93;;;-12.80;99.90;;;;;;4348545;33;20152;-74
2021/01/18 09:56:15;;;;;;;128.30;40.13;;;-12.60;99.90;;;;;;4348560;33;20212;-74
2021/01/18 09:58:58;;;;;;;151.30;44.67;;;-12.60;99.40;;;;;;4349101;33;20140;-74
2021/01/18 10:01:27;;;;;;;151.47;44.03;;;-12.50;99.60;;;;;;4335708;33;20230;-71
2021/01/18 10:04:02;;;;;;;159.00;45.37;;;-12.70;99.10;;;;;;4336291;33;20519;-70
2021/01/18 10:06:31;;;;;;;160.83;45.00;;;-12.60;99.60;;;;;;4348895;33;20144;-71
2021/01/18 10:09:06;;;;;;;148.13;44.23;;;-12.50;99.50;;;;;;4348300;33;20144;-71
2021/01/18 10:11:43;;;;;;;175.20;50.13;;;-12.60;99.00;;;;;;4349359;33;20206;-71
2021/01/18 10:14:22;;;;;;;149.07;46.30;;;-12.70;99.50;;;;;;4348967;33;20199;-69
2021/01/18 10:17:00;;;;;;;163.97;49.03;;;-12.60;99.60;;;;;;4351827;33;20164;-69
2021/01/18 10:19:31;;;;;;;161.60;45.83;;;-12.40;99.40;;;;;;4348131;33;20239;-71
2021/01/18 10:22:00;;;;;;;158.27;47.43;;;-12.30;98.90;;;;;;4351221;33;20152;-69
2021/01/18 10:24:34;;;;;;;183.10;52.80;;;-12.10;98.90;;;;;;4352175;33;20212;-69
2021/01/18 10:27:04;;;;;;;164.47;50.10;;;-12.20;97.80;;;;;;4351269;33;20160;-69
2021/01/18 10:29:33;;;;;;;163.20;49.07;;;-12.00;98.30;;;;;;4351064;33;20214;-69
2021/01/18 10:32:00;;;;;;;172.23;49.77;;;-11.90;98.30;;;;;;4351874;33;20156;-68
2021/01/18 10:34:33;;;;;;;180.53;50.37;;;-11.70;97.60;;;;;;4350555;33;20200;-70
2021/01/18 10:37:18;;;;;;;165.90;49.73;;;-11.80;97.10;;;;;;4351173;33;20148;-70
2021/01/18 10:39:46;;;;;;;171.50;50.23;;;-11.90;97.00;;;;;;4350618;33;20168;-70
2021/01/18 10:42:20;;;;;;;158.37;48.87;;;-12.10;97.50;;;;;;4351025;33;20197;-73
2021/01/18 10:44:49;;;;;;;177.30;51.23;;;-12.10;98.00;;;;;;4351075;33;20187;-73
2021/01/18 10:47:19;;;;;;;180.40;51.57;;;-12.10;98.30;;;;;;4352138;33;20136;-73
2021/01/18 10:49:55;;;;;;;163.40;51.13;;;-12.10;98.10;;;;;;4351217;33;20149;-73
2021/01/18 10:52:32;;;;;;;171.77;50.47;;;-12.10;98.30;;;;;;4351148;33;20144;-73
2021/01/18 10:55:00;;;;;;;166.83;51.97;;;-12.10;98.40;;;;;;4351167;33;20152;-73
2021/01/18 10:57:47;;;;;;;164.90;49.47;;;-12.00;98.30;;;;;;4350362;33;20153;-74
2021/01/18 11:00:15;;;;;;;180.53;49.77;;;-11.90;98.30;;;;;;4350777;33;20498;-74
2021/01/18 11:02:52;;;;;;;152.97;47.10;;;-11.70;98.00;;;;;;4350765;33;20211;-74
2021/01/18 11:05:26;;;;;;;154.17;47.23;;;-11.50;97.80;;;;;;4350231;33;20187;-72
2021/01/18 11:07:53;;;;;;;162.90;47.67;;;-11.30;97.00;;;;;;4351278;33;20170;-73
2021/01/18 11:10:24;;;;;;;173.23;50.77;;;-11.20;97.00;;;;;;4350598;33;20194;-73
2021/01/18 11:13:19;;;;;;;178.03;50.90;;;-11.20;96.30;;;;;;4350789;33;20161;-74
2021/01/18 11:15:49;;;;;;;166.47;50.63;;;-11.10;96.10;;;;;;4350654;33;20203;-74
2021/01/18 11:18:20;;;;;;;141.47;44.53;;;-10.80;96.00;;;;;;4350229;33;20247;-74
2021/01/18 11:20:52;;;;;;;155.40;45.20;;;-10.80;96.00;;;;;;4350628;33;20284;-73
2021/01/18 11:23:19;;;;;;;160.90;46.73;;;-10.80;95.90;;;;;;4350664;33;20218;-73
2021/01/18 11:25:45;;;;;;;140.83;44.87;;;-11.10;95.70;;;;;;4350394;33;20191;-73
2021/01/18 11:28:15;;;;;;;144.03;43.67;;;-11.00;96.20;;;;;;4350903;33;20202;-72
2021/01/18 11:30:43;;;;;;;135.70;42.70;;;-10.80;96.50;;;;;;4350329;33;20168;-72
2021/01/18 11:33:11;;;;;;;129.47;40.73;;;-10.70;95.60;;;;;;4351452;33;20178;-73
2021/01/18 11:35:41;;;;;;;125.63;41.57;;;-10.60;95.40;;;;;;4350579;33;20175;-72
2021/01/18 11:38:09;;;;;;;127.60;41.43;;;-10.80;95.40;;;;;;4349699;33;20594;-73
2021/01/18 11:40:36;;;;;;;126.40;40.20;;;-11.00;95.40;;;;;;4349883;33;20176;-74
2021/01/18 11:43:02;;;;;;;133.03;41.37;;;-11.10;95.90;;;;;;4349930;33;20190;-74
2021/01/18 11:45:29;;;;;;;125.33;40.03;;;-11.20;95.80;;;;;;4350008;33;20157;-74
2021/01/18 11:47:56;;;;;;;113.40;37.73;;;-11.10;96.40;;;;;;4350309;33;20219;-73
2021/01/18 11:50:23;;;;;;;129.30;40.80;;;-11.00;95.90;;;;;;4349988;33;20152;-73
2021/01/18 11:52:51;;;;;;;111.90;38.60;;;-10.80;95.90;;;;;;4349682;33;20178;-73
2021/01/18 11:55:18;;;;;;;131.67;41.23;;;-10.50;95.80;;;;;;4349879;33;20202;-74
2021/01/18 11:57:49;;;;;;;125.77;40.80;;;-10.20;94.80;;;;;;4349818;33;20167;-73
2021/01/18 12:00:25;;;;;;;135.47;42.10;;;-9.80;95.00;;;;;;4349530;33;20156;-73
2021/01/18 12:02:53;;;;;;;133.10;41.80;;;-9.80;93.60;;;;;;4349616;33;20164;-73
2021/01/18 12:05:24;;;;;;;125.70;41.03;;;-9.70;93.20;;;;;;4349801;33;20153;-73
2021/01/18 12:07:55;;;;;;;131.97;39.90;;;-9.60;92.60;;;;;;4349323;33;20397;-73
2021/01/18 12:10:23;;;;;;;125.17;40.00;;;-10.00;92.10;;;;;;4349857;33;20188;-72
2021/01/18 12:12:50;;;;;;;120.20;37.80;;;-9.90;93.00;;;;;;4349702;33;20157;-73
2021/01/18 12:15:17;;;;;;;112.07;37.27;;;-9.70;92.90;;;;;;4349728;33;20294;-73
2021/01/18 12:17:45;;;;;;;113.83;35.43;;;-9.70;92.50;;;;;;4349014;33;20168;-73
2021/01/18 12:20:15;;;;;;;120.70;34.57;;;-9.80;92.60;;;;;;4349090;33;20172;-73
2021/01/18 12:22:42;;;;;;;110.20;35.37;;;-10.10;92.70;;;;;;4349195;33;20152;-72
2021/01/18 12:25:10;;;;;;;102.43;34.40;;;-10.30;92.90;;;;;;4349330;33;20172;-73
2021/01/18 12:27:36;;;;;;;111.27;36.27;;;-10.20;93.30;;;;;;4349147;33;20153;-72
2021/01/18 12:30:07;;;;;;;121.27;37.00;;;-10.50;93.80;;;;;;4348967;33;20149;-73
2021/01/18 12:32:35;;;;;;;104.93;35.10;;;-10.30;94.40;;;;;;4349562;33;20175;-74
2021/01/18 12:35:04;;;;;;;118.13;37.10;;;-10.30;94.10;;;;;;4349145;33;20466;-74